Time;durP1;ratioP1;P1;durP2;ratioP2;P2;SDS_P1;SDS_P2;PMS_P1;PMS_P2;Temp;Humidity;BMP_temperature;BMP_pressure;BME280_temperature;BME280_humidity;BME280_pressure;Samples;Min_cycle;Max_cycle;Signal;HPM_P1;HPM_P2
2023/09/10 00:00:58;;;;;;;0.20;0.20;;;;;;;19.35;93.65;100950.47;4983265;28;20046;-78
2023/09/10 00:03:24;;;;;;;1.33;1.02;;;;;;;19.28;94.16;100942.72;4983764;28;20057;-76
2023/09/10 00:05:49;;;;;;;1.70;1.23;;;;;;;18.63;94.50;100835.38;4981173;28;20042;-76
2023/09/10 00:08:15;;;;;;;3.53;2.97;;;;;;;19.13;94.61;100912.09;4983431;28;20031;-77
2023/09/10 00:10:42;;;;;;;0.10;0.10;;;;;;;19.36;94.66;100952.25;4985909;28;20054;-77
2023/09/10 00:13:08;;;;;;;0.93;0.90;;;;;;;19.05;95.66;100916.72;4988248;28;20094;-76
2023/09/10 00:15:33;;;;;;;2.70;0.95;;;;;;;19.35;95.17;100954.94;4986307;28;20038;-76
2023/09/10 00:17:59;;;;;;;1.05;0.65;;;;;;;18.72;95.72;100872.34;4986540;28;20664;-74
2023/09/10 00:20:26;;;;;;;1.40;0.70;;;;;;;19.21;95.80;100957.09;4986443;28;20041;-77
2023/09/10 00:22:52;;;;;;;1.38;1.27;;;;;;;19.03;96.32;100938.03;4985121;28;20079;-76
2023/09/10 00:25:17;;;;;;;1.23;0.88;;;;;;;18.72;96.72;100890.09;4988615;28;20053;-76
2023/09/10 00:27:43;;;;;;;1.67;1.58;;;;;;;18.74;96.84;100880.28;4986398;28;20133;-76
2023/09/10 00:30:09;;;;;;;3.15;2.85;;;;;;;19.15;97.17;100960.78;4988308;28;20686;-76
2023/09/10 00:32:35;;;;;;;0.77;0.60;;;;;;;19.15;96.63;100953.69;4984434;28;20022;-77
2023/09/10 00:35:00;;;;;;;1.05;0.95;;;;;;;19.15;95.60;100937.72;4982442;28;20042;-76
2023/09/10 00:37:26;;;;;;;1.95;1.85;;;;;;;18.66;95.11;100851.25;4989602;28;20692;-77
2023/09/10 00:39:51;;;;;;;1.17;1.05;;;;;;;18.70;96.06;100873.28;4987919;28;20050;-76
2023/09/10 00:42:17;;;;;;;0.52;0.40;;;;;;;18.78;96.36;100887.31;4986927;28;20031;-76
2023/09/10 00:44:43;;;;;;;0.95;0.85;;;;;;;19.18;96.67;100950.06;4985096;28;20180;-78
2023/09/10 00:47:09;;;;;;;1.10;0.77;;;;;;;18.48;96.63;100843.75;4982583;28;20038;-75
2023/09/10 00:49:35;;;;;;;0.70;0.50;;;;;;;18.53;97.66;100863.09;4990738;28;20046;-78
2023/09/10 00:52:02;;;;;;;0.52;0.50;;;;;;;19.00;99.06;100948.78;4983830;28;20109;-74
2023/09/10 00:54:31;;;;;;;1.45;1.17;;;;;;;18.92;99.97;100942.78;4983192;28;20050;-74
2023/09/10 00:56:57;;;;;;;0.70;0.70;;;;;;;18.47;99.93;100856.19;4984649;28;20050;-76
2023/09/10 00:59:23;;;;;;;0.70;0.70;;;;;;;19.16;100.00;100981.16;4987895;28;20054;-74
2023/09/10 01:01:49;;;;;;;0.32;0.30;;;;;;;19.13;99.98;100966.16;4984896;28;20120;-75
2023/09/10 01:04:18;;;;;;;0.68;0.60;;;;;;;18.46;98.88;100854.41;4988558;28;20232;-78
2023/09/10 01:06:43;;;;;;;1.58;1.42;;;;;;;18.84;98.81;100913.72;4987100;28;20065;-78
2023/09/10 01:09:08;;;;;;;0.55;0.55;;;;;;;19.18;98.25;100979.34;4985860;28;20054;-76
2023/09/10 01:11:58;;;;;;;6.00;0.95;;;;;;;19.19;97.96;100979.28;4980788;28;20097;-76
2023/09/10 01:14:47;;;;;;;0.30;0.30;;;;;;;19.28;96.74;100979.97;4988193;28;20049;-77
2023/09/10 01:17:31;;;;;;;0.70;0.65;;;;;;;19.04;96.62;100960.22;4988208;28;20034;-77
2023/09/10 01:20:35;;;;;;;0.50;0.40;;;;;;;19.20;96.36;100977.53;4985365;28;20072;-77
2023/09/10 01:23:39;;;;;;;0.68;0.43;;;;;;;18.56;95.16;100858.56;4976370;28;20047;-77
2023/09/10 01:26:05;;;;;;;1.13;1.08;;;;;;;19.07;96.09;100963.66;4985335;28;20053;-76
2023/09/10 01:28:30;;;;;;;0.73;0.73;;;;;;;19.31;95.28;100970.09;4985040;28;20046;-76
2023/09/10 01:30:56;;;;;;;0.30;0.30;;;;;;;18.47;95.70;100853.53;4984180;28;20046;-78
2023/09/10 01:33:35;;;;;;;0.20;0.20;;;;;;;18.50;96.83;100863.19;4982896;28;20050;-76
2023/09/10 01:36:14;;;;;;;0.40;0.40;;;;;;;19.06;96.17;100948.63;4989021;28;20085;-76
2023/09/10 01:39:01;;;;;;;0.30;0.30;;;;;;;19.03;96.04;100948.69;4987443;28;20044;-76
2023/09/10 01:41:29;;;;;;;1.75;1.20;;;;;;;18.92;95.39;100942.78;4984298;28;20050;-78
2023/09/10 01:43:55;;;;;;;1.02;0.93;;;;;;;18.62;93.35;100888.59;4977649;28;20030;-76
2023/09/10 01:46:23;;;;;;;3.65;1.40;;;;;;;19.11;93.28;100967.13;4983167;28;20516;-76
2023/09/10 01:48:49;;;;;;;1.65;0.50;;;;;;;18.53;93.29;100869.28;4986240;28;20054;-75
2023/09/10 01:51:16;;;;;;;0.73;0.55;;;;;;;18.54;92.41;100864.84;4985722;28;20065;-75
2023/09/10 01:53:42;;;;;;;0.25;0.20;;;;;;;18.45;92.73;100871.28;4983971;28;20121;-76
2023/09/10 01:56:14;;;;;;;0.45;0.45;;;;;;;18.37;93.36;100867.94;5080810;27;21029;-75
2023/09/10 01:58:39;;;;;;;2.53;1.35;;;;;;;18.93;92.74;100944.53;5030811;28;20050;-75
2023/09/10 02:01:08;;;;;;;0.73;0.73;;;;;;;18.41;94.55;100888.22;5056530;28;20052;-77
2023/09/10 02:03:34;;;;;;;0.52;0.52;;;;;;;18.37;95.53;100885.66;5059607;28;20106;-76
2023/09/10 02:06:03;;;;;;;0.60;0.60;;;;;;;18.60;96.32;100947.09;5062413;28;20053;-77
2023/09/10 02:08:29;;;;;;;0.20;0.20;;;;;;;18.74;97.16;100978.66;5074624;28;20080;-76
2023/09/10 02:10:54;;;;;;;0.50;0.50;;;;;;;18.09;97.76;100881.00;5060952;28;20037;-76
2023/09/10 02:13:20;;;;;;;0.60;0.60;;;;;;;18.06;99.06;100883.75;5063698;28;20079;-76
2023/09/10 02:15:45;;;;;;;1.10;1.02;;;;;;;18.02;99.88;100892.69;5064095;28;20061;-76
2023/09/10 02:18:16;;;;;;;0.32;0.32;;;;;;;18.41;100.00;100983.00;5050178;28;20064;-76
2023/09/10 02:20:42;;;;;;;1.15;1.10;;;;;;;17.78;100.00;100887.00;5065020;28;20044;-76
2023/09/10 02:23:08;;;;;;;1.70;1.60;;;;;;;17.75;100.00;100876.44;5051951;28;20032;-76
2023/09/10 02:25:33;;;;;;;0.47;0.47;;;;;;;18.31;100.00;100971.72;5054876;28;20041;-77
2023/09/10 02:28:00;;;;;;;0.55;0.43;;;;;;;18.38;100.00;100988.38;5060097;28;20077;-76
2023/09/10 02:30:26;;;;;;;1.88;1.23;;;;;;;18.35;100.00;100989.31;5057743;28;20049;-77
2023/09/10 02:32:51;;;;;;;4.03;1.65;;;;;;;18.32;100.00;100990.25;5048064;28;20045;-76
2023/09/10 02:35:17;;;;;;;1.65;1.55;;;;;;;17.85;100.00;100922.28;5061373;28;20806;-76
2023/09/10 02:37:43;;;;;;;0.17;0.17;;;;;;;18.24;100.00;101000.19;5054363;28;20142;-74
2023/09/10 02:40:09;;;;;;;0.80;0.68;;;;;;;18.10;100.00;100975.72;5044735;28;20095;-77
2023/09/10 02:42:34;;;;;;;1.48;1.15;;;;;;;17.64;100.00;100895.25;5063742;28;20041;-77
2023/09/10 02:45:02;;;;;;;1.38;1.27;;;;;;;17.54;100.00;100892.84;5060425;28;20098;-76
2023/09/10 02:47:27;;;;;;;1.30;1.05;;;;;;;16.74;100.00;100757.41;5060727;28;20082;-77
2023/09/10 02:49:54;;;;;;;0.63;0.52;;;;;;;17.50;100.00;100903.50;5054900;28;20990;-74
2023/09/10 02:52:20;;;;;;;0.55;0.47;;;;;;;18.00;100.00;100992.75;5053200;28;20456;-75
2023/09/10 02:54:45;;;;;;;0.38;0.38;;;;;;;17.95;100.00;100976.06;5064724;28;20056;-75
2023/09/10 02:57:11;;;;;;;2.90;1.58;;;;;;;17.53;100.00;100915.81;5061120;28;20045;-78
2023/09/10 02:59:36;;;;;;;0.52;0.52;;;;;;;17.88;100.00;100988.56;5067950;28;20028;-76
2023/09/10 03:02:01;;;;;;;0.28;0.20;;;;;;;17.87;100.00;100993.03;5057467;28;20047;-77
2023/09/10 03:04:27;;;;;;;1.15;1.05;;;;;;;17.19;100.00;100887.34;5055888;28;20113;-76
2023/09/10 03:06:52;;;;;;;0.63;0.57;;;;;;;17.90;100.00;100998.25;5041868;28;20067;-76
2023/09/10 03:09:18;;;;;;;1.83;1.15;;;;;;;17.27;100.00;100903.97;5042017;28;20045;-78
2023/09/10 03:11:44;;;;;;;1.27;1.10;;;;;;;17.27;100.00;100913.69;5043353;28;20425;-77
2023/09/10 03:14:10;;;;;;;0.30;0.30;;;;;;;17.88;100.00;101005.38;5047191;28;20060;-76
2023/09/10 03:16:40;;;;;;;1.08;1.00;;;;;;;17.80;100.00;101004.63;5042477;28;20109;-76
2023/09/10 03:19:06;;;;;;;0.55;0.50;;;;;;;17.37;100.00;100936.50;5041655;28;20061;-77
2023/09/10 03:21:32;;;;;;;1.83;1.67;;;;;;;17.20;100.00;100898.81;5048068;28;20075;-76
2023/09/10 03:23:57;;;;;;;0.40;0.40;;;;;;;17.05;100.00;100877.00;5039750;28;20049;-76
2023/09/10 03:26:23;;;;;;;1.17;1.08;;;;;;;17.32;100.00;100930.41;5057357;28;20671;-76
2023/09/10 03:28:48;;;;;;;2.17;2.05;;;;;;;17.76;100.00;101002.06;5048899;28;20052;-77
2023/09/10 03:31:14;;;;;;;2.55;2.35;;;;;;;17.03;100.00;100881.44;5044845;28;20067;-76
2023/09/10 03:33:41;;;;;;;0.30;0.30;;;;;;;17.69;100.00;100991.56;5045601;28;20064;-76
2023/09/10 03:36:07;;;;;;;0.30;0.30;;;;;;;16.70;100.00;100827.28;5039561;28;20068;-76
2023/09/10 03:38:32;;;;;;;1.17;0.73;;;;;;;17.14;100.00;100913.09;5051360;28;20505;-77
2023/09/10 03:40:58;;;;;;;2.05;1.90;;;;;;;17.63;100.00;100983.75;5044368;28;20037;-75
2023/09/10 03:43:23;;;;;;;1.23;0.82;;;;;;;17.13;100.00;100923.72;5043624;28;20043;-75
2023/09/10 03:45:49;;;;;;;1.65;1.20;;;;;;;17.00;100.00;100899.22;5044574;28;20064;-77
2023/09/10 03:48:14;;;;;;;0.77;0.55;;;;;;;17.66;100.00;101019.97;5043117;28;20048;-76
2023/09/10 03:50:40;;;;;;;0.65;0.60;;;;;;;17.70;100.00;101026.97;5042842;28;20492;-77
2023/09/10 03:53:05;;;;;;;0.75;0.63;;;;;;;17.62;100.00;101005.88;5048627;28;20041;-74
2023/09/10 03:55:31;;;;;;;1.55;1.10;;;;;;;17.23;100.00;100939.44;5034132;28;20080;-75
2023/09/10 03:57:56;;;;;;;1.63;1.52;;;;;;;17.65;100.00;101029.72;5044460;28;20512;-77
2023/09/10 04:00:22;;;;;;;7.68;1.45;;;;;;;17.05;100.00;100930.03;5046447;28;20126;-77
2023/09/10 04:02:47;;;;;;;1.75;1.15;;;;;;;17.46;100.00;101001.75;5036067;28;20045;-77
2023/09/10 04:05:13;;;;;;;0.30;0.30;;;;;;;16.98;100.00;100923.09;5039469;28;20037;-75
2023/09/10 04:07:39;;;;;;;1.20;0.77;;;;;;;16.90;100.00;100914.38;5046044;28;20053;-76
2023/09/10 04:10:09;;;;;;;1.38;1.10;;;;;;;17.47;100.00;101011.50;5037909;28;20045;-75
2023/09/10 04:12:35;;;;;;;0.47;0.47;;;;;;;17.48;100.00;101027.34;5045699;28;20063;-76
2023/09/10 04:15:01;;;;;;;7.53;0.65;;;;;;;17.57;100.00;101039.59;5043950;28;20045;-76
2023/09/10 04:17:30;;;;;;;0.73;0.57;;;;;;;16.92;100.00;100923.19;5040564;28;20112;-76
2023/09/10 04:19:58;;;;;;;0.68;0.68;;;;;;;17.02;100.00;100931.84;5036067;28;20033;-75
2023/09/10 04:22:24;;;;;;;0.68;0.55;;;;;;;17.64;100.00;101035.91;5041181;28;20055;-75
2023/09/10 04:24:50;;;;;;;2.33;1.45;;;;;;;17.62;100.00;101035.06;5045260;28;20056;-75
2023/09/10 04:27:16;;;;;;;0.75;0.75;;;;;;;17.62;100.00;101050.13;5048393;28;20055;-76
2023/09/10 04:29:41;;;;;;;4.88;1.67;;;;;;;17.01;100.00;100946.03;5036621;28;20029;-76
2023/09/10 04:32:07;;;;;;;1.70;1.38;;;;;;;17.51;100.00;101045.91;5043788;28;20029;-76
2023/09/10 04:34:32;;;;;;;1.48;1.38;;;;;;;17.36;100.00;101019.63;5043859;28;20048;-76
2023/09/10 04:36:57;;;;;;;0.75;0.60;;;;;;;17.56;100.00;101051.13;5049534;28;20908;-75
2023/09/10 04:39:23;;;;;;;0.55;0.55;;;;;;;16.99;100.00;100950.47;5043170;28;20125;-76
2023/09/10 04:41:49;;;;;;;0.63;0.52;;;;;;;17.03;100.00;100960.13;5043680;28;20052;-77
2023/09/10 04:44:15;;;;;;;1.20;1.00;;;;;;;17.59;100.00;101059.03;5053145;28;20123;-76
2023/09/10 04:46:40;;;;;;;0.93;0.77;;;;;;;17.62;100.00;101058.94;5036453;28;20134;-77
2023/09/10 04:49:06;;;;;;;1.38;0.90;;;;;;;17.57;100.00;101062.59;5042894;28;20078;-75
2023/09/10 04:51:31;;;;;;;0.30;0.30;;;;;;;17.13;100.00;100982.91;5042293;28;20107;-77
2023/09/10 04:53:57;;;;;;;1.55;1.45;;;;;;;17.31;100.00;100997.63;5038181;28;20090;-75
2023/09/10 04:56:22;;;;;;;0.75;0.63;;;;;;;17.19;100.00;100961.59;5047987;28;20434;-76
2023/09/10 04:58:48;;;;;;;1.15;0.95;;;;;;;17.77;100.00;101049.84;5054742;28;20132;-75
2023/09/10 05:01:14;;;;;;;1.73;0.88;;;;;;;17.95;100.00;101066.34;5030843;28;20060;-75
2023/09/10 05:03:41;;;;;;;1.45;1.35;;;;;;;17.35;100.00;100943.63;5045294;28;20048;-75
2023/09/10 05:06:07;;;;;;;3.28;1.15;;;;;;;17.90;100.00;101042.53;5040464;28;20049;-74
2023/09/10 05:08:34;;;;;;;0.55;0.45;;;;;;;18.06;100.00;101049.28;5045496;28;20452;-76
2023/09/10 05:10:59;;;;;;;1.13;1.10;;;;;;;18.13;100.00;101061.53;5041873;28;20092;-74
2023/09/10 05:13:25;;;;;;;1.30;1.20;;;;;;;18.12;100.00;101040.28;5043895;28;20481;-76
2023/09/10 05:15:54;;;;;;;0.52;0.52;;;;;;;18.16;100.00;101028.69;5041773;28;20504;-75
2023/09/10 05:18:20;;;;;;;0.73;0.50;;;;;;;17.67;100.00;100955.34;5034905;28;20053;-75
2023/09/10 05:20:47;;;;;;;0.85;0.68;;;;;;;17.61;100.00;100961.69;5031275;28;20142;-77
2023/09/10 05:23:13;;;;;;;1.23;1.13;;;;;;;17.77;100.00;100961.34;5045699;28;20091;-75
2023/09/10 05:25:38;;;;;;;2.40;2.20;;;;;;;17.68;100.00;100965.09;5044798;28;20696;-76
2023/09/10 05:28:04;;;;;;;0.77;0.70;;;;;;;18.28;100.00;101075.38;5024900;28;20076;-75
2023/09/10 05:30:30;;;;;;;1.33;1.23;;;;;;;17.76;100.00;100970.22;5019975;28;20420;-78
2023/09/10 05:32:58;;;;;;;3.25;1.90;;;;;;;18.40;100.00;101076.91;5031114;28;20088;-76
2023/09/10 05:35:24;;;;;;;1.80;1.20;;;;;;;18.34;100.00;101069.94;5043272;28;20041;-75
2023/09/10 05:37:50;;;;;;;1.95;0.95;;;;;;;17.72;100.00;100949.06;5045211;28;20094;-76
2023/09/10 05:40:15;;;;;;;0.30;0.30;;;;;;;17.90;100.00;100954.91;5028506;28;20053;-76
2023/09/10 05:42:41;;;;;;;0.35;0.35;;;;;;;18.47;100.00;100990.81;5038475;28;20053;-76
2023/09/10 05:45:07;;;;;;;0.45;0.40;;;;;;;18.94;100.00;101082.78;5037911;28;20148;-76
2023/09/10 05:47:32;;;;;;;2.33;2.15;;;;;;;18.97;100.00;101081.84;5036953;28;20037;-78
2023/09/10 05:50:00;;;;;;;4.15;0.73;;;;;;;18.41;100.00;100991.84;5047309;28;20522;-76
2023/09/10 05:52:25;;;;;;;0.47;0.47;;;;;;;18.55;100.00;101016.31;5046743;28;20052;-77
2023/09/10 05:54:53;;;;;;;0.55;0.45;;;;;;;18.23;100.00;100963.91;5044053;28;20060;-76
2023/09/10 05:57:19;;;;;;;1.95;1.00;;;;;;;19.51;100.00;101008.63;5047014;28;20052;-75
2023/09/10 05:59:45;;;;;;;0.17;0.17;;;;;;;20.64;100.00;101082.63;5044106;28;21806;-75
2023/09/10 06:02:17;;;;;;;0.85;0.82;;;;;;;20.03;100.00;101085.28;5029736;28;20045;-77
2023/09/10 06:04:42;;;;;;;1.45;1.35;;;;;;;20.09;100.00;101089.59;5041098;28;20144;-75
2023/09/10 06:07:08;;;;;;;14.48;0.75;;;;;;;20.07;100.00;101072.75;5046865;28;20045;-74
2023/09/10 06:09:33;;;;;;;0.65;0.65;;;;;;;19.40;100.00;100992.94;5037887;28;20052;-74
2023/09/10 06:12:02;;;;;;;0.52;0.40;;;;;;;19.99;100.00;101104.06;5032169;28;20060;-75
2023/09/10 06:14:30;;;;;;;1.85;0.93;;;;;;;19.59;100.00;101023.44;5039327;28;20044;-75
2023/09/10 06:17:03;;;;;;;2.30;2.10;;;;;;;19.87;100.00;101045.81;5038239;28;20036;-75
2023/09/10 06:19:30;;;;;;;1.05;0.60;;;;;;;19.75;100.00;100999.97;5043977;28;20045;-76
2023/09/10 06:21:56;;;;;;;0.20;0.20;;;;;;;20.35;100.00;101096.81;5034601;28;20083;-76
2023/09/10 06:24:21;;;;;;;1.05;0.95;;;;;;;19.30;100.00;100957.72;5054285;28;20071;-75
2023/09/10 06:26:47;;;;;;;1.27;1.17;;;;;;;19.98;100.00;101078.34;5031246;28;20053;-76
2023/09/10 06:29:14;;;;;;;0.30;0.30;;;;;;;19.85;100.00;101003.22;5046101;28;20072;-77
2023/09/10 06:31:39;;;;;;;2.45;2.25;;;;;;;20.23;100.00;101004.78;5037112;28;20568;-75
2023/09/10 06:34:05;;;;;;;0.40;0.40;;;;;;;20.83;100.00;101100.72;5048450;28;20051;-76
2023/09/10 06:36:31;;;;;;;0.45;0.45;;;;;;;20.31;100.00;101009.00;5039007;28;20052;-75
2023/09/10 06:38:57;;;;;;;1.20;1.05;;;;;;;20.84;100.00;101116.69;5032145;28;20052;-83
2023/09/10 06:41:22;;;;;;;0.55;0.55;;;;;;;20.63;100.00;101120.03;5034229;28;20041;-77
2023/09/10 06:43:48;;;;;;;1.50;0.82;;;;;;;20.39;100.00;101078.91;5039921;28;20056;-80
2023/09/10 06:46:13;;;;;;;0.55;0.52;;;;;;;20.59;100.00;101110.34;5048144;28;20520;-77
2023/09/10 06:48:39;;;;;;;4.85;2.05;;;;;;;20.93;100.00;101104.88;5046773;28;20140;-78
2023/09/10 06:51:04;;;;;;;0.40;0.28;;;;;;;20.35;100.00;101011.50;5030498;28;20049;-75
2023/09/10 06:53:30;;;;;;;1.08;0.98;;;;;;;20.22;100.00;101019.00;5032366;28;20439;-76
2023/09/10 06:55:56;;;;;;;3.33;1.70;;;;;;;20.55;100.00;101098.00;5050554;28;20055;-76
2023/09/10 06:58:22;;;;;;;0.50;0.50;;;;;;;20.76;100.00;101104.50;5047459;28;20056;-76
2023/09/10 07:00:47;;;;;;;0.40;0.40;;;;;;;20.53;100.00;101031.38;5041105;28;20454;-76
2023/09/10 07:03:13;;;;;;;0.75;0.75;;;;;;;21.03;100.00;101100.97;5046856;28;20463;-77
2023/09/10 07:05:42;;;;;;;2.05;1.85;;;;;;;20.96;100.00;101088.75;5037232;28;20451;-81
2023/09/10 07:08:10;;;;;;;1.45;1.13;;;;;;;20.60;100.00;101014.31;5047124;28;20029;-75
2023/09/10 07:10:36;;;;;;;4.60;1.17;;;;;;;21.36;100.00;101091.91;5047277;28;20327;-77
2023/09/10 07:13:07;;;;;;;1.38;1.30;;;;;;;21.52;100.00;101108.28;5044332;28;20464;-78
2023/09/10 07:15:34;;;;;;;1.25;1.15;;;;;;;21.60;100.00;101101.75;5044405;28;20144;-78
2023/09/10 07:17:59;;;;;;;0.20;0.20;;;;;;;21.73;100.00;101091.53;5032374;28;20522;-75
2023/09/10 07:20:25;;;;;;;0.35;0.35;;;;;;;22.04;100.00;101104.63;5042459;28;20029;-73
2023/09/10 07:22:50;;;;;;;1.05;0.77;;;;;;;22.12;100.00;101112.38;5024916;28;20045;-73
2023/09/10 07:25:16;;;;;;;0.73;0.55;;;;;;;21.40;100.00;101014.34;5036117;28;20088;-74
2023/09/10 07:27:41;;;;;;;0.88;0.80;;;;;;;22.21;100.00;101005.13;5041029;28;20144;-74
2023/09/10 07:30:07;;;;;;;1.13;0.57;;;;;;;22.87;100.00;101085.44;5029523;28;20053;-75
2023/09/10 07:32:33;;;;;;;1.25;0.75;;;;;;;23.45;92.99;101068.78;5018037;28;20033;-77
2023/09/10 07:34:59;;;;;;;0.80;0.57;;;;;;;23.10;91.48;101027.44;5014781;28;20137;-76
2023/09/10 07:37:24;;;;;;;0.80;0.80;;;;;;;22.68;97.36;101106.69;5020364;28;20091;-77
2023/09/10 07:39:50;;;;;;;1.60;0.63;;;;;;;23.12;91.78;101087.16;5016086;28;20057;-78
2023/09/10 07:42:15;;;;;;;0.47;0.45;;;;;;;23.18;89.75;101017.28;5005419;28;20094;-76
2023/09/10 07:44:41;;;;;;;0.22;0.22;;;;;;;22.93;91.13;101023.63;5019283;28;20030;-72
2023/09/10 07:47:08;;;;;;;0.35;0.30;;;;;;;22.80;94.52;101069.69;5012928;28;20072;-73
2023/09/10 07:49:33;;;;;;;0.73;0.73;;;;;;;22.72;95.53;101081.56;5014463;28;20068;-75
2023/09/10 07:51:59;;;;;;;1.35;0.77;;;;;;;22.49;92.42;100945.19;5009863;28;20493;-74
2023/09/10 07:54:24;;;;;;;0.52;0.50;;;;;;;23.26;90.74;101007.09;5012732;28;20062;-73
2023/09/10 07:56:50;;;;;;;0.70;0.70;;;;;;;23.52;93.65;101105.06;5010412;28;20163;-77
2023/09/10 07:59:15;;;;;;;1.05;0.95;;;;;;;22.93;92.38;101012.91;5016018;28;20088;-74
2023/09/10 08:01:41;;;;;;;0.82;0.40;;;;;;;23.43;92.49;101102.78;5015527;28;20140;-74
2023/09/10 08:04:06;;;;;;;0.63;0.57;;;;;;;23.37;88.79;101002.16;5016021;28;20042;-76
2023/09/10 08:06:32;;;;;;;0.77;0.60;;;;;;;23.95;87.15;101067.50;5016698;28;20057;-75
2023/09/10 08:08:57;;;;;;;2.67;1.48;;;;;;;23.59;89.94;101069.03;4999290;28;20056;-75
2023/09/10 08:11:23;;;;;;;7.00;1.65;;;;;;;23.87;88.57;101083.94;5043806;28;20108;-75
2023/09/10 08:13:50;;;;;;;1.85;1.70;;;;;;;23.51;88.30;101012.25;5024151;28;20058;-75
2023/09/10 08:16:17;;;;;;;1.77;1.25;;;;;;;23.76;92.27;101087.13;5018785;28;20045;-75
2023/09/10 08:18:44;;;;;;;2.53;1.63;;;;;;;23.26;91.81;101015.13;5025432;28;20072;-74
2023/09/10 08:21:11;;;;;;;2.35;1.90;;;;;;;23.96;89.05;101071.94;5021813;28;20046;-76
2023/09/10 08:23:36;;;;;;;1.55;0.82;;;;;;;23.28;86.44;101017.75;5009652;28;20038;-75
2023/09/10 08:26:02;;;;;;;0.28;0.28;;;;;;;23.22;88.65;101023.38;4998839;28;20064;-78
2023/09/10 08:28:28;;;;;;;0.45;0.45;;;;;;;24.12;83.99;101089.06;5008148;28;20071;-76
2023/09/10 08:30:54;;;;;;;1.10;0.95;;;;;;;23.61;85.79;101010.03;5031695;28;20064;-75
2023/09/10 08:33:21;;;;;;;1.70;1.52;;;;;;;24.08;85.51;101082.09;5035627;28;20127;-80
2023/09/10 08:35:48;;;;;;;1.17;0.82;;;;;;;23.95;87.45;101062.13;5034755;28;20049;-75
2023/09/10 08:38:14;;;;;;;0.32;0.32;;;;;;;24.21;86.79;101066.34;5040100;28;20143;-73
2023/09/10 08:40:55;;;;;;;1.90;1.10;;;;;;;24.32;85.88;101071.19;5037693;28;20040;-76
2023/09/10 08:43:31;;;;;;;0.77;0.75;;;;;;;24.11;83.75;101017.59;5011887;28;20625;-74
2023/09/10 08:45:56;;;;;;;0.28;0.28;;;;;;;24.43;82.40;101064.34;5019819;28;20071;-73
2023/09/10 08:48:23;;;;;;;0.38;0.38;;;;;;;24.37;80.21;100981.50;5013704;28;20517;-70
2023/09/10 08:50:50;;;;;;;0.82;0.82;;;;;;;24.70;78.89;101049.72;5008899;28;20050;-74
2023/09/10 08:53:17;;;;;;;0.52;0.30;;;;;;;24.47;78.41;101006.09;5004659;28;20042;-72
2023/09/10 08:55:44;;;;;;;0.55;0.50;;;;;;;24.14;79.96;101064.84;5039042;28;20045;-74
2023/09/10 08:58:13;;;;;;;0.35;0.35;;;;;;;24.00;79.18;101044.06;5013067;28;20136;-76
2023/09/10 09:00:40;;;;;;;2.80;1.65;;;;;;;23.38;79.89;100922.66;5013715;28;20096;-75
2023/09/10 09:03:06;;;;;;;1.25;0.52;;;;;;;23.63;79.08;101009.97;5018796;28;20045;-74
2023/09/10 09:05:34;;;;;;;4.13;1.20;;;;;;;24.02;80.52;101074.31;5016808;28;20056;-74
2023/09/10 09:08:10;;;;;;;1.55;1.10;;;;;;;23.98;79.51;101048.63;5018317;28;20473;-75
2023/09/10 09:10:36;;;;;;;2.53;2.33;;;;;;;24.67;77.29;101072.22;5010173;28;20041;-76
2023/09/10 09:13:06;;;;;;;0.22;0.22;;;;;;;24.71;76.30;101062.22;5009052;28;20104;-76
2023/09/10 09:15:33;;;;;;;0.85;0.85;;;;;;;24.42;72.76;101075.19;5016649;28;20053;-75
2023/09/10 09:18:01;;;;;;;6.50;2.78;;;;;;;24.50;73.67;101074.84;5010164;28;20049;-76
2023/09/10 09:20:30;;;;;;;0.57;0.52;;;;;;;24.92;70.90;101060.28;5010521;28;20046;-75
2023/09/10 09:23:03;;;;;;;0.20;0.20;;;;;;;24.71;73.76;101073.81;5013588;28;20570;-76
2023/09/10 09:25:28;;;;;;;0.50;0.50;;;;;;;24.39;72.44;100995.69;5040563;28;20037;-74
2023/09/10 09:27:55;;;;;;;0.45;0.43;;;;;;;25.09;69.41;101064.81;5040027;28;20041;-77
2023/09/10 09:30:20;;;;;;;0.20;0.20;;;;;;;24.80;69.24;101005.38;5036325;28;20048;-74
2023/09/10 09:32:48;;;;;;;0.35;0.35;;;;;;;24.84;61.95;101029.31;5041584;28;20041;-75
2023/09/10 09:35:14;;;;;;;0.57;0.57;;;;;;;24.57;63.15;100979.69;5041655;28;20202;-75
2023/09/10 09:37:42;;;;;;;0.57;0.57;;;;;;;24.30;65.11;100969.31;5036896;28;20231;-77
2023/09/10 09:40:11;;;;;;;2.38;1.23;;;;;;;24.34;66.18;100986.13;5033336;28;20624;-76
2023/09/10 09:42:37;;;;;;;0.50;0.50;;;;;;;24.57;67.83;100995.78;5041404;28;20714;-78
2023/09/10 09:45:03;;;;;;;1.23;0.95;;;;;;;24.15;63.78;100919.13;5040190;28;20517;-76
2023/09/10 09:47:30;;;;;;;1.13;1.02;;;;;;;24.83;64.38;100999.84;5042477;28;20075;-76
2023/09/10 09:49:56;;;;;;;1.50;1.25;;;;;;;25.24;63.47;101043.47;5040952;28;20059;-77
2023/09/10 09:52:22;;;;;;;0.65;0.65;;;;;;;25.34;63.16;101027.72;5040833;28;20057;-77
2023/09/10 09:54:48;;;;;;;3.17;1.52;;;;;;;25.41;62.05;101041.72;5036440;28;20769;-78
2023/09/10 09:57:14;;;;;;;0.82;0.82;;;;;;;25.28;59.96;101045.00;5039204;28;20199;-78
2023/09/10 09:59:40;;;;;;;0.20;0.20;;;;;;;24.81;62.50;101042.88;5044206;28;20032;-75
2023/09/10 10:02:12;;;;;;;0.25;0.25;;;;;;;24.51;62.00;100975.47;5043718;28;20197;-73
2023/09/10 10:04:40;;;;;;;0.45;0.35;;;;;;;25.53;62.69;101048.28;5040026;28;20696;-77
2023/09/10 10:07:05;;;;;;;0.38;0.38;;;;;;;25.57;63.88;101052.53;5036514;28;20068;-74
2023/09/10 10:09:38;;;;;;;0.73;0.73;;;;;;;24.81;65.73;100967.72;5036355;28;20065;-77
2023/09/10 10:12:05;;;;;;;0.35;0.28;;;;;;;25.14;66.29;101034.06;5046587;28;20152;-74
2023/09/10 10:14:32;;;;;;;0.50;0.50;;;;;;;25.77;63.68;101024.59;5040874;28;20049;-73
2023/09/10 10:17:00;;;;;;;0.20;0.20;;;;;;;24.87;59.99;100971.06;5039017;28;20041;-72
2023/09/10 10:19:26;;;;;;;0.28;0.28;;;;;;;24.39;60.72;100971.53;5038122;28;20052;-74
2023/09/10 10:21:53;;;;;;;0.45;0.45;;;;;;;24.54;60.04;100972.66;5044889;28;20048;-72
2023/09/10 10:24:19;;;;;;;0.77;0.70;;;;;;;24.94;59.44;100976.03;5043894;28;20102;-74
2023/09/10 10:26:46;;;;;;;1.08;0.80;;;;;;;25.33;60.00;101044.78;5042162;28;20036;-72
2023/09/10 10:29:12;;;;;;;0.40;0.40;;;;;;;25.25;60.35;101007.56;5049941;28;20049;-73
2023/09/10 10:31:41;;;;;;;1.40;0.60;;;;;;;25.20;60.94;101027.56;5043931;28;20064;-73
2023/09/10 10:34:14;;;;;;;0.20;0.20;;;;;;;25.53;60.54;101057.19;5040110;28;20049;-72
2023/09/10 10:36:56;;;;;;;;;;;;;;;25.82;59.28;101046.72;5037490;28;20045;-73
2023/09/10 10:39:45;;;;;;;0.73;0.68;;;;;;;25.18;58.80;101003.47;5049969;28;20106;-72
2023/09/10 10:42:16;;;;;;;0.45;0.40;;;;;;;25.24;57.61;101046.16;5041341;28;20056;-72
2023/09/10 10:44:42;;;;;;;0.47;0.47;;;;;;;25.35;57.80;101047.41;5047335;28;20049;-72
2023/09/10 10:47:18;;;;;;;0.55;0.22;;;;;;;24.76;58.22;100975.13;5039736;28;20136;-74
2023/09/10 10:49:52;;;;;;;0.57;0.57;;;;;;;24.49;57.42;100963.97;5034738;28;20055;-74
2023/09/10 10:52:22;;;;;;;0.52;0.50;;;;;;;25.16;57.98;101037.56;5047468;28;20056;-73
2023/09/10 10:54:51;;;;;;;0.13;0.13;;;;;;;24.93;56.70;100935.81;5043731;28;20171;-74
2023/09/10 10:57:18;;;;;;;0.20;0.20;;;;;;;24.85;54.80;100965.75;5036536;28;20144;-74
2023/09/10 10:59:43;;;;;;;2.40;1.42;;;;;;;25.01;55.64;101039.22;5050216;28;20763;-74
2023/09/10 11:02:09;;;;;;;1.83;1.30;;;;;;;25.54;56.76;101036.56;5035214;28;20045;-75
2023/09/10 11:04:35;;;;;;;2.08;1.38;;;;;;;25.21;55.20;100938.84;5050760;28;20055;-77
2023/09/10 11:07:17;;;;;;;0.35;0.35;;;;;;;25.59;53.81;101013.00;5040050;28;20049;-74
2023/09/10 11:09:43;;;;;;;0.77;0.50;;;;;;;24.68;54.50;100928.16;5041297;28;20063;-77
2023/09/10 11:12:09;;;;;;;0.52;0.52;;;;;;;25.45;54.69;101014.59;5043500;28;20044;-76
2023/09/10 11:15:03;;;;;;;0.55;0.43;;;;;;;26.04;54.12;101012.38;5046178;28;20759;-76
2023/09/10 11:17:33;;;;;;;0.22;0.22;;;;;;;25.33;52.84;100941.81;5036795;28;20053;-76
2023/09/10 11:20:00;;;;;;;0.73;0.68;;;;;;;25.17;52.75;100925.59;5045336;28;20039;-74
2023/09/10 11:22:46;;;;;;;1.45;1.15;;;;;;;25.11;53.65;100960.88;5042061;28;20065;-75